sensor_id;sensor_type;location;lat;lon;timestamp;P1;durP1;ratioP1;P2;durP2;ratioP2
70707;SDS011;58277;47.316;18.908;2023-10-09T00:02:04;3.17;;;1.20;;
70707;SDS011;58277;47.316;18.908;2023-10-09T00:04:29;3.78;;;1.42;;
70707;SDS011;58277;47.316;18.908;2023-10-09T00:06:52;3.37;;;1.40;;
70707;SDS011;58277;47.316;18.908;2023-10-09T00:09:19;3.67;;;1.27;;
70707;SDS011;58277;47.316;18.908;2023-10-09T00:11:45;2.65;;;1.05;;
70707;SDS011;58277;47.316;18.908;2023-10-09T00:17:15;3.70;;;1.27;;
70707;SDS011;58277;47.316;18.908;2023-10-09T00:19:46;3.22;;;1.40;;
70707;SDS011;58277;47.316;18.908;2023-10-09T00:22:22;3.83;;;1.10;;
70707;SDS011;58277;47.316;18.908;2023-10-09T00:24:52;2.75;;;1.15;;
70707;SDS011;58277;47.316;18.908;2023-10-09T00:27:32;3.17;;;1.20;;
70707;SDS011;58277;47.316;18.908;2023-10-09T00:29:58;2.67;;;1.10;;
70707;SDS011;58277;47.316;18.908;2023-10-09T00:32:21;6.10;;;1.60;;
70707;SDS011;58277;47.316;18.908;2023-10-09T00:34:49;4.20;;;1.38;;
70707;SDS011;58277;47.316;18.908;2023-10-09T00:37:15;4.30;;;1.55;;
70707;SDS011;58277;47.316;18.908;2023-10-09T00:39:45;2.22;;;1.27;;
70707;SDS011;58277;47.316;18.908;2023-10-09T00:42:13;3.20;;;1.30;;
70707;SDS011;58277;47.316;18.908;2023-10-09T00:44:45;3.43;;;1.60;;
70707;SDS011;58277;47.316;18.908;2023-10-09T00:47:11;5.75;;;1.80;;
70707;SDS011;58277;47.316;18.908;2023-10-09T00:49:44;5.00;;;1.70;;
70707;SDS011;58277;47.316;18.908;2023-10-09T00:52:08;3.53;;;1.70;;
70707;SDS011;58277;47.316;18.908;2023-10-09T00:54:40;5.50;;;1.80;;
70707;SDS011;58277;47.316;18.908;2023-10-09T00:57:04;2.70;;;1.40;;
70707;SDS011;58277;47.316;18.908;2023-10-09T00:59:29;4.97;;;1.80;;
70707;SDS011;58277;47.316;18.908;2023-10-09T01:01:53;3.70;;;1.50;;
70707;SDS011;58277;47.316;18.908;2023-10-09T01:04:20;3.42;;;1.27;;
70707;SDS011;58277;47.316;18.908;2023-10-09T01:06:45;3.25;;;1.50;;
70707;SDS011;58277;47.316;18.908;2023-10-09T01:09:26;4.63;;;1.30;;
70707;SDS011;58277;47.316;18.908;2023-10-09T01:11:50;4.25;;;1.60;;
70707;SDS011;58277;47.316;18.908;2023-10-09T01:14:22;3.63;;;1.60;;
70707;SDS011;58277;47.316;18.908;2023-10-09T01:16:45;3.25;;;1.60;;
70707;SDS011;58277;47.316;18.908;2023-10-09T01:19:10;2.83;;;1.40;;
70707;SDS011;58277;47.316;18.908;2023-10-09T01:21:41;5.97;;;1.47;;
70707;SDS011;58277;47.316;18.908;2023-10-09T01:24:04;3.13;;;1.45;;
70707;SDS011;58277;47.316;18.908;2023-10-09T01:26:35;3.45;;;1.38;;
70707;SDS011;58277;47.316;18.908;2023-10-09T01:29:02;3.10;;;1.30;;
70707;SDS011;58277;47.316;18.908;2023-10-09T01:31:26;3.53;;;1.58;;
70707;SDS011;58277;47.316;18.908;2023-10-09T01:33:49;3.55;;;1.55;;
70707;SDS011;58277;47.316;18.908;2023-10-09T01:36:12;4.45;;;1.70;;
70707;SDS011;58277;47.316;18.908;2023-10-09T01:38:38;4.03;;;1.48;;
70707;SDS011;58277;47.316;18.908;2023-10-09T01:41:04;4.07;;;1.55;;
70707;SDS011;58277;47.316;18.908;2023-10-09T01:43:30;4.03;;;1.63;;
70707;SDS011;58277;47.316;18.908;2023-10-09T01:45:56;3.47;;;1.42;;
70707;SDS011;58277;47.316;18.908;2023-10-09T01:48:40;4.93;;;1.52;;
70707;SDS011;58277;47.316;18.908;2023-10-09T01:51:12;4.43;;;1.50;;
70707;SDS011;58277;47.316;18.908;2023-10-09T01:53:36;3.28;;;1.58;;
70707;SDS011;58277;47.316;18.908;2023-10-09T01:56:10;3.20;;;1.50;;
70707;SDS011;58277;47.316;18.908;2023-10-09T01:58:40;3.35;;;1.60;;
70707;SDS011;58277;47.316;18.908;2023-10-09T02:01:03;3.08;;;1.30;;
70707;SDS011;58277;47.316;18.908;2023-10-09T02:03:27;4.30;;;1.52;;
70707;SDS011;58277;47.316;18.908;2023-10-09T02:05:52;3.13;;;1.40;;
70707;SDS011;58277;47.316;18.908;2023-10-09T02:08:40;4.85;;;1.70;;
70707;SDS011;58277;47.316;18.908;2023-10-09T02:11:11;4.80;;;1.40;;
70707;SDS011;58277;47.316;18.908;2023-10-09T02:13:38;3.22;;;1.30;;
70707;SDS011;58277;47.316;18.908;2023-10-09T02:16:04;3.03;;;1.40;;
70707;SDS011;58277;47.316;18.908;2023-10-09T02:18:37;3.13;;;1.40;;
70707;SDS011;58277;47.316;18.908;2023-10-09T02:23:23;3.73;;;1.50;;
70707;SDS011;58277;47.316;18.908;2023-10-09T02:25:56;3.28;;;1.52;;
70707;SDS011;58277;47.316;18.908;2023-10-09T02:28:19;3.88;;;1.70;;
70707;SDS011;58277;47.316;18.908;2023-10-09T02:30:42;4.60;;;1.30;;
70707;SDS011;58277;47.316;18.908;2023-10-09T02:33:07;3.67;;;1.40;;
70707;SDS011;58277;47.316;18.908;2023-10-09T02:35:31;4.13;;;1.88;;
70707;SDS011;58277;47.316;18.908;2023-10-09T02:38:00;3.72;;;1.88;;
70707;SDS011;58277;47.316;18.908;2023-10-09T02:40:27;3.33;;;1.58;;
70707;SDS011;58277;47.316;18.908;2023-10-09T02:42:54;3.28;;;1.55;;
70707;SDS011;58277;47.316;18.908;2023-10-09T02:45:17;4.95;;;1.60;;
70707;SDS011;58277;47.316;18.908;2023-10-09T02:47:41;3.33;;;1.38;;
70707;SDS011;58277;47.316;18.908;2023-10-09T02:50:05;3.42;;;1.60;;
70707;SDS011;58277;47.316;18.908;2023-10-09T02:52:31;3.60;;;1.63;;
70707;SDS011;58277;47.316;18.908;2023-10-09T02:54:56;2.92;;;1.60;;
70707;SDS011;58277;47.316;18.908;2023-10-09T02:57:22;5.65;;;1.52;;
70707;SDS011;58277;47.316;18.908;2023-10-09T02:59:46;3.43;;;1.50;;
70707;SDS011;58277;47.316;18.908;2023-10-09T03:02:10;2.92;;;1.67;;
70707;SDS011;58277;47.316;18.908;2023-10-09T03:04:33;3.95;;;1.50;;
70707;SDS011;58277;47.316;18.908;2023-10-09T03:06:59;4.07;;;1.70;;
70707;SDS011;58277;47.316;18.908;2023-10-09T03:09:22;3.50;;;1.60;;
70707;SDS011;58277;47.316;18.908;2023-10-09T03:11:51;3.77;;;1.80;;
70707;SDS011;58277;47.316;18.908;2023-10-09T03:14:18;3.00;;;1.45;;
70707;SDS011;58277;47.316;18.908;2023-10-09T03:16:42;3.88;;;1.50;;
70707;SDS011;58277;47.316;18.908;2023-10-09T03:19:05;3.13;;;1.52;;
70707;SDS011;58277;47.316;18.908;2023-10-09T03:21:28;2.97;;;1.23;;
70707;SDS011;58277;47.316;18.908;2023-10-09T03:23:50;3.80;;;1.45;;
70707;SDS011;58277;47.316;18.908;2023-10-09T03:26:13;4.10;;;1.20;;
70707;SDS011;58277;47.316;18.908;2023-10-09T03:28:44;3.20;;;1.42;;
70707;SDS011;58277;47.316;18.908;2023-10-09T03:31:10;3.58;;;1.50;;
70707;SDS011;58277;47.316;18.908;2023-10-09T03:33:34;3.28;;;1.50;;
70707;SDS011;58277;47.316;18.908;2023-10-09T03:36:01;4.97;;;1.52;;
70707;SDS011;58277;47.316;18.908;2023-10-09T03:38:24;3.55;;;1.45;;
70707;SDS011;58277;47.316;18.908;2023-10-09T03:40:46;5.05;;;1.92;;
70707;SDS011;58277;47.316;18.908;2023-10-09T03:43:10;3.00;;;1.50;;
70707;SDS011;58277;47.316;18.908;2023-10-09T03:45:33;4.32;;;1.50;;
70707;SDS011;58277;47.316;18.908;2023-10-09T03:47:58;4.82;;;1.73;;
70707;SDS011;58277;47.316;18.908;2023-10-09T03:50:40;4.85;;;1.73;;
70707;SDS011;58277;47.316;18.908;2023-10-09T03:53:05;4.15;;;1.50;;
70707;SDS011;58277;47.316;18.908;2023-10-09T03:55:29;3.72;;;1.30;;
70707;SDS011;58277;47.316;18.908;2023-10-09T03:57:52;4.32;;;1.40;;
70707;SDS011;58277;47.316;18.908;2023-10-09T04:00:14;4.30;;;1.50;;
70707;SDS011;58277;47.316;18.908;2023-10-09T04:02:38;4.03;;;1.40;;
70707;SDS011;58277;47.316;18.908;2023-10-09T04:05:01;3.17;;;1.50;;
70707;SDS011;58277;47.316;18.908;2023-10-09T04:07:24;4.70;;;1.52;;
70707;SDS011;58277;47.316;18.908;2023-10-09T04:09:48;3.08;;;1.45;;
70707;SDS011;58277;47.316;18.908;2023-10-09T04:12:16;3.30;;;1.40;;
70707;SDS011;58277;47.316;18.908;2023-10-09T04:14:48;4.25;;;1.60;;
70707;SDS011;58277;47.316;18.908;2023-10-09T04:17:17;4.30;;;1.40;;
70707;SDS011;58277;47.316;18.908;2023-10-09T04:19:52;3.30;;;1.58;;
70707;SDS011;58277;47.316;18.908;2023-10-09T04:22:33;5.18;;;1.50;;
70707;SDS011;58277;47.316;18.908;2023-10-09T04:25:01;4.72;;;1.40;;
70707;SDS011;58277;47.316;18.908;2023-10-09T04:27:24;3.30;;;1.40;;
70707;SDS011;58277;47.316;18.908;2023-10-09T04:29:58;4.63;;;1.42;;
70707;SDS011;58277;47.316;18.908;2023-10-09T04:32:23;4.18;;;1.50;;
70707;SDS011;58277;47.316;18.908;2023-10-09T04:34:47;3.03;;;1.40;;
70707;SDS011;58277;47.316;18.908;2023-10-09T04:37:33;2.60;;;1.13;;
70707;SDS011;58277;47.316;18.908;2023-10-09T04:40:03;2.50;;;1.20;;
70707;SDS011;58277;47.316;18.908;2023-10-09T04:42:37;3.38;;;1.30;;
70707;SDS011;58277;47.316;18.908;2023-10-09T04:45:00;6.75;;;1.73;;
70707;SDS011;58277;47.316;18.908;2023-10-09T04:47:29;5.72;;;1.30;;
70707;SDS011;58277;47.316;18.908;2023-10-09T04:49:58;15.13;;;2.03;;
70707;SDS011;58277;47.316;18.908;2023-10-09T04:52:21;7.55;;;1.67;;
70707;SDS011;58277;47.316;18.908;2023-10-09T04:55:13;8.52;;;1.50;;
70707;SDS011;58277;47.316;18.908;2023-10-09T04:57:45;10.43;;;1.77;;
70707;SDS011;58277;47.316;18.908;2023-10-09T05:02:57;4.20;;;1.40;;
70707;SDS011;58277;47.316;18.908;2023-10-09T05:05:25;7.50;;;1.58;;
70707;SDS011;58277;47.316;18.908;2023-10-09T05:08:06;4.75;;;1.50;;
70707;SDS011;58277;47.316;18.908;2023-10-09T05:10:52;6.57;;;1.60;;
70707;SDS011;58277;47.316;18.908;2023-10-09T05:13:24;5.30;;;1.38;;
70707;SDS011;58277;47.316;18.908;2023-10-09T05:16:05;5.03;;;1.50;;
70707;SDS011;58277;47.316;18.908;2023-10-09T05:18:41;3.80;;;1.75;;
70707;SDS011;58277;47.316;18.908;2023-10-09T05:21:04;5.88;;;1.60;;
70707;SDS011;58277;47.316;18.908;2023-10-09T05:23:46;4.20;;;1.60;;
70707;SDS011;58277;47.316;18.908;2023-10-09T05:26:31;17.63;;;2.13;;
70707;SDS011;58277;47.316;18.908;2023-10-09T05:29:11;3.70;;;1.53;;
70707;SDS011;58277;47.316;18.908;2023-10-09T05:31:43;4.88;;;1.52;;
70707;SDS011;58277;47.316;18.908;2023-10-09T05:34:18;6.38;;;1.80;;
70707;SDS011;58277;47.316;18.908;2023-10-09T05:36:44;4.97;;;1.30;;
70707;SDS011;58277;47.316;18.908;2023-10-09T05:39:10;4.63;;;1.52;;
70707;SDS011;58277;47.316;18.908;2023-10-09T05:42:02;4.20;;;1.38;;
70707;SDS011;58277;47.316;18.908;2023-10-09T05:44:32;4.32;;;1.65;;
70707;SDS011;58277;47.316;18.908;2023-10-09T05:47:08;3.53;;;1.35;;
70707;SDS011;58277;47.316;18.908;2023-10-09T05:49:49;5.50;;;1.92;;
70707;SDS011;58277;47.316;18.908;2023-10-09T05:52:38;5.53;;;1.75;;
70707;SDS011;58277;47.316;18.908;2023-10-09T05:55:01;4.13;;;1.40;;
70707;SDS011;58277;47.316;18.908;2023-10-09T05:57:33;4.68;;;1.60;;
70707;SDS011;58277;47.316;18.908;2023-10-09T06:00:14;4.80;;;1.83;;
70707;SDS011;58277;47.316;18.908;2023-10-09T06:02:55;5.65;;;1.33;;
70707;SDS011;58277;47.316;18.908;2023-10-09T06:05:40;3.95;;;1.73;;
70707;SDS011;58277;47.316;18.908;2023-10-09T06:08:04;5.47;;;1.42;;
70707;SDS011;58277;47.316;18.908;2023-10-09T06:10:29;4.63;;;1.77;;
70707;SDS011;58277;47.316;18.908;2023-10-09T06:13:02;3.97;;;1.40;;
70707;SDS011;58277;47.316;18.908;2023-10-09T06:15:26;9.48;;;1.70;;
70707;SDS011;58277;47.316;18.908;2023-10-09T06:18:14;4.30;;;1.50;;
70707;SDS011;58277;47.316;18.908;2023-10-09T06:20:54;5.72;;;1.50;;
70707;SDS011;58277;47.316;18.908;2023-10-09T06:23:53;4.53;;;1.50;;
70707;SDS011;58277;47.316;18.908;2023-10-09T06:26:37;5.10;;;1.33;;
70707;SDS011;58277;47.316;18.908;2023-10-09T06:29:00;5.65;;;1.30;;
70707;SDS011;58277;47.316;18.908;2023-10-09T06:31:38;3.90;;;1.45;;
70707;SDS011;58277;47.316;18.908;2023-10-09T06:34:20;13.70;;;2.13;;
70707;SDS011;58277;47.316;18.908;2023-10-09T06:36:47;9.00;;;1.40;;
70707;SDS011;58277;47.316;18.908;2023-10-09T06:39:16;8.00;;;1.60;;
70707;SDS011;58277;47.316;18.908;2023-10-09T06:41:58;20.58;;;2.22;;
70707;SDS011;58277;47.316;18.908;2023-10-09T06:44:34;4.05;;;1.38;;
70707;SDS011;58277;47.316;18.908;2023-10-09T06:47:14;3.22;;;1.52;;
70707;SDS011;58277;47.316;18.908;2023-10-09T06:49:40;3.83;;;1.50;;
70707;SDS011;58277;47.316;18.908;2023-10-09T06:52:23;6.60;;;1.58;;
70707;SDS011;58277;47.316;18.908;2023-10-09T06:55:06;3.20;;;1.27;;
70707;SDS011;58277;47.316;18.908;2023-10-09T06:57:41;3.25;;;1.08;;
70707;SDS011;58277;47.316;18.908;2023-10-09T07:00:11;6.07;;;1.80;;
70707;SDS011;58277;47.316;18.908;2023-10-09T07:02:53;3.67;;;1.35;;
70707;SDS011;58277;47.316;18.908;2023-10-09T07:05:17;4.47;;;1.92;;
70707;SDS011;58277;47.316;18.908;2023-10-09T07:07:41;4.05;;;1.33;;
70707;SDS011;58277;47.316;18.908;2023-10-09T07:10:12;4.63;;;1.25;;
70707;SDS011;58277;47.316;18.908;2023-10-09T07:12:55;3.40;;;1.27;;
70707;SDS011;58277;47.316;18.908;2023-10-09T07:15:19;3.40;;;1.10;;
70707;SDS011;58277;47.316;18.908;2023-10-09T07:18:02;2.55;;;1.00;;
70707;SDS011;58277;47.316;18.908;2023-10-09T07:20:42;2.65;;;1.27;;
70707;SDS011;58277;47.316;18.908;2023-10-09T07:23:21;2.92;;;1.20;;
70707;SDS011;58277;47.316;18.908;2023-10-09T07:25:45;2.95;;;1.42;;
70707;SDS011;58277;47.316;18.908;2023-10-09T07:28:17;4.28;;;1.23;;
70707;SDS011;58277;47.316;18.908;2023-10-09T07:30:41;3.25;;;1.20;;
70707;SDS011;58277;47.316;18.908;2023-10-09T07:33:06;2.15;;;0.80;;
70707;SDS011;58277;47.316;18.908;2023-10-09T07:35:33;3.38;;;1.00;;
70707;SDS011;58277;47.316;18.908;2023-10-09T07:38:05;4.95;;;1.10;;
70707;SDS011;58277;47.316;18.908;2023-10-09T07:40:32;2.85;;;0.93;;
70707;SDS011;58277;47.316;18.908;2023-10-09T07:43:14;4.03;;;0.70;;
70707;SDS011;58277;47.316;18.908;2023-10-09T07:45:38;1.67;;;0.70;;
70707;SDS011;58277;47.316;18.908;2023-10-09T07:48:01;2.35;;;0.93;;
70707;SDS011;58277;47.316;18.908;2023-10-09T07:50:34;2.63;;;0.90;;
70707;SDS011;58277;47.316;18.908;2023-10-09T07:53:11;2.78;;;0.80;;
70707;SDS011;58277;47.316;18.908;2023-10-09T07:55:49;3.13;;;0.90;;
70707;SDS011;58277;47.316;18.908;2023-10-09T07:58:21;2.58;;;0.80;;
70707;SDS011;58277;47.316;18.908;2023-10-09T08:00:48;5.90;;;1.10;;
70707;SDS011;58277;47.316;18.908;2023-10-09T08:03:30;2.63;;;1.00;;
70707;SDS011;58277;47.316;18.908;2023-10-09T08:05:55;4.82;;;0.90;;
70707;SDS011;58277;47.316;18.908;2023-10-09T08:08:29;2.83;;;0.80;;
70707;SDS011;58277;47.316;18.908;2023-10-09T08:11:02;4.07;;;0.95;;
70707;SDS011;58277;47.316;18.908;2023-10-09T08:13:43;2.95;;;0.93;;
70707;SDS011;58277;47.316;18.908;2023-10-09T08:16:12;3.13;;;1.40;;
70707;SDS011;58277;47.316;18.908;2023-10-09T08:18:43;4.40;;;0.93;;
70707;SDS011;58277;47.316;18.908;2023-10-09T08:21:07;2.58;;;1.13;;
70707;SDS011;58277;47.316;18.908;2023-10-09T08:23:30;3.80;;;0.68;;
70707;SDS011;58277;47.316;18.908;2023-10-09T08:26:11;3.58;;;0.60;;
70707;SDS011;58277;47.316;18.908;2023-10-09T08:28:36;1.98;;;0.85;;
70707;SDS011;58277;47.316;18.908;2023-10-09T08:31:22;1.98;;;0.73;;
70707;SDS011;58277;47.316;18.908;2023-10-09T08:34:08;3.50;;;0.90;;
70707;SDS011;58277;47.316;18.908;2023-10-09T08:37:05;2.20;;;0.70;;
70707;SDS011;58277;47.316;18.908;2023-10-09T08:39:28;3.03;;;0.80;;
70707;SDS011;58277;47.316;18.908;2023-10-09T08:41:56;2.67;;;0.80;;
70707;SDS011;58277;47.316;18.908;2023-10-09T08:44:25;3.35;;;0.60;;
70707;SDS011;58277;47.316;18.908;2023-10-09T08:46:56;3.15;;;0.73;;
70707;SDS011;58277;47.316;18.908;2023-10-09T08:49:21;3.35;;;0.50;;
70707;SDS011;58277;47.316;18.908;2023-10-09T08:51:47;4.15;;;0.73;;
70707;SDS011;58277;47.316;18.908;2023-10-09T08:54:10;2.33;;;0.80;;
70707;SDS011;58277;47.316;18.908;2023-10-09T08:56:35;3.65;;;0.90;;
70707;SDS011;58277;47.316;18.908;2023-10-09T08:58:58;2.67;;;0.80;;
70707;SDS011;58277;47.316;18.908;2023-10-09T09:01:22;3.92;;;1.00;;
70707;SDS011;58277;47.316;18.908;2023-10-09T09:03:49;4.45;;;1.00;;
70707;SDS011;58277;47.316;18.908;2023-10-09T09:06:13;4.70;;;1.00;;
70707;SDS011;58277;47.316;18.908;2023-10-09T09:08:37;2.75;;;0.93;;
70707;SDS011;58277;47.316;18.908;2023-10-09T09:11:01;4.40;;;0.90;;
70707;SDS011;58277;47.316;18.908;2023-10-09T09:16:25;8.13;;;1.15;;
70707;SDS011;58277;47.316;18.908;2023-10-09T09:18:55;2.28;;;0.80;;
70707;SDS011;58277;47.316;18.908;2023-10-09T09:21:42;4.40;;;1.25;;
70707;SDS011;58277;47.316;18.908;2023-10-09T09:24:10;2.78;;;1.10;;
70707;SDS011;58277;47.316;18.908;2023-10-09T09:26:44;4.65;;;1.30;;
70707;SDS011;58277;47.316;18.908;2023-10-09T09:29:21;2.63;;;0.90;;
70707;SDS011;58277;47.316;18.908;2023-10-09T09:31:52;3.80;;;0.70;;
70707;SDS011;58277;47.316;18.908;2023-10-09T09:34:17;2.97;;;0.85;;
70707;SDS011;58277;47.316;18.908;2023-10-09T09:36:50;2.45;;;0.85;;
70707;SDS011;58277;47.316;18.908;2023-10-09T09:39:17;2.90;;;1.00;;
70707;SDS011;58277;47.316;18.908;2023-10-09T09:41:41;5.40;;;0.90;;
70707;SDS011;58277;47.316;18.908;2023-10-09T09:44:07;2.47;;;1.05;;
70707;SDS011;58277;47.316;18.908;2023-10-09T09:46:33;4.07;;;1.10;;
70707;SDS011;58277;47.316;18.908;2023-10-09T09:48:57;3.58;;;0.77;;
70707;SDS011;58277;47.316;18.908;2023-10-09T09:51:23;5.32;;;0.88;;
70707;SDS011;58277;47.316;18.908;2023-10-09T09:53:51;2.85;;;1.00;;
70707;SDS011;58277;47.316;18.908;2023-10-09T09:56:16;4.63;;;0.90;;
70707;SDS011;58277;47.316;18.908;2023-10-09T09:58:45;3.08;;;1.15;;
70707;SDS011;58277;47.316;18.908;2023-10-09T10:01:16;4.70;;;0.93;;
70707;SDS011;58277;47.316;18.908;2023-10-09T10:03:49;3.03;;;0.98;;
70707;SDS011;58277;47.316;18.908;2023-10-09T10:06:36;2.53;;;1.02;;
70707;SDS011;58277;47.316;18.908;2023-10-09T10:09:02;3.75;;;0.95;;
70707;SDS011;58277;47.316;18.908;2023-10-09T10:11:44;2.67;;;1.00;;
70707;SDS011;58277;47.316;18.908;2023-10-09T10:14:08;7.13;;;1.23;;
70707;SDS011;58277;47.316;18.908;2023-10-09T10:16:36;3.05;;;0.90;;
70707;SDS011;58277;47.316;18.908;2023-10-09T10:19:25;2.65;;;1.00;;
70707;SDS011;58277;47.316;18.908;2023-10-09T10:22:38;2.90;;;0.82;;
70707;SDS011;58277;47.316;18.908;2023-10-09T10:25:01;2.42;;;0.85;;
70707;SDS011;58277;47.316;18.908;2023-10-09T10:27:32;3.70;;;1.05;;
70707;SDS011;58277;47.316;18.908;2023-10-09T10:30:27;2.65;;;0.80;;
70707;SDS011;58277;47.316;18.908;2023-10-09T10:32:56;2.22;;;0.80;;
70707;SDS011;58277;47.316;18.908;2023-10-09T10:35:32;3.67;;;0.80;;
70707;SDS011;58277;47.316;18.908;2023-10-09T10:37:58;2.72;;;1.02;;
70707;SDS011;58277;47.316;18.908;2023-10-09T10:40:31;3.20;;;1.00;;
70707;SDS011;58277;47.316;18.908;2023-10-09T10:43:14;2.80;;;0.90;;
70707;SDS011;58277;47.316;18.908;2023-10-09T10:46:05;2.65;;;0.95;;
70707;SDS011;58277;47.316;18.908;2023-10-09T10:48:55;2.92;;;0.90;;
70707;SDS011;58277;47.316;18.908;2023-10-09T10:51:37;7.00;;;1.95;;
70707;SDS011;58277;47.316;18.908;2023-10-09T10:54:01;2.28;;;1.08;;
70707;SDS011;58277;47.316;18.908;2023-10-09T11:00:10;3.30;;;1.00;;
70707;SDS011;58277;47.316;18.908;2023-10-09T11:02:53;5.13;;;1.20;;
70707;SDS011;58277;47.316;18.908;2023-10-09T11:05:17;4.82;;;1.20;;
70707;SDS011;58277;47.316;18.908;2023-10-09T11:07:46;2.90;;;1.08;;
70707;SDS011;58277;47.316;18.908;2023-10-09T11:10:11;3.65;;;1.20;;
70707;SDS011;58277;47.316;18.908;2023-10-09T11:12:49;3.53;;;1.05;;
70707;SDS011;58277;47.316;18.908;2023-10-09T11:15:15;4.75;;;1.10;;
70707;SDS011;58277;47.316;18.908;2023-10-09T11:17:43;4.38;;;1.15;;
70707;SDS011;58277;47.316;18.908;2023-10-09T11:20:08;3.20;;;1.10;;
70707;SDS011;58277;47.316;18.908;2023-10-09T11:22:52;3.92;;;1.30;;
70707;SDS011;58277;47.316;18.908;2023-10-09T11:25:33;4.32;;;1.30;;
70707;SDS011;58277;47.316;18.908;2023-10-09T11:27:56;3.92;;;1.15;;
70707;SDS011;58277;47.316;18.908;2023-10-09T11:30:19;4.38;;;1.30;;
70707;SDS011;58277;47.316;18.908;2023-10-09T11:33:05;4.20;;;1.20;;
70707;SDS011;58277;47.316;18.908;2023-10-09T11:35:29;6.40;;;1.63;;
70707;SDS011;58277;47.316;18.908;2023-10-09T11:37:57;3.85;;;1.10;;
70707;SDS011;58277;47.316;18.908;2023-10-09T11:42:59;5.63;;;1.50;;
70707;SDS011;58277;47.316;18.908;2023-10-09T11:45:23;6.45;;;1.40;;
70707;SDS011;58277;47.316;18.908;2023-10-09T11:47:51;6.90;;;1.27;;
70707;SDS011;58277;47.316;18.908;2023-10-09T11:53:14;3.28;;;1.33;;
70707;SDS011;58277;47.316;18.908;2023-10-09T11:55:56;4.13;;;1.40;;
70707;SDS011;58277;47.316;18.908;2023-10-09T11:58:20;4.05;;;1.40;;
70707;SDS011;58277;47.316;18.908;2023-10-09T12:00:47;20.95;;;2.00;;
70707;SDS011;58277;47.316;18.908;2023-10-09T12:03:11;4.93;;;1.23;;
70707;SDS011;58277;47.316;18.908;2023-10-09T12:05:35;8.02;;;1.27;;
70707;SDS011;58277;47.316;18.908;2023-10-09T12:07:59;4.38;;;1.10;;
70707;SDS011;58277;47.316;18.908;2023-10-09T12:10:24;3.08;;;1.25;;
70707;SDS011;58277;47.316;18.908;2023-10-09T12:12:50;23.13;;;2.10;;
70707;SDS011;58277;47.316;18.908;2023-10-09T12:15:13;10.95;;;1.40;;
70707;SDS011;58277;47.316;18.908;2023-10-09T12:17:39;4.07;;;1.60;;
70707;SDS011;58277;47.316;18.908;2023-10-09T12:20:07;16.42;;;1.95;;
70707;SDS011;58277;47.316;18.908;2023-10-09T12:22:36;3.40;;;1.55;;
70707;SDS011;58277;47.316;18.908;2023-10-09T12:25:03;12.55;;;1.45;;
70707;SDS011;58277;47.316;18.908;2023-10-09T12:27:30;4.65;;;1.33;;
70707;SDS011;58277;47.316;18.908;2023-10-09T12:29:54;2.90;;;1.40;;
70707;SDS011;58277;47.316;18.908;2023-10-09T12:32:19;5.75;;;1.50;;
70707;SDS011;58277;47.316;18.908;2023-10-09T12:34:43;3.08;;;1.23;;
70707;SDS011;58277;47.316;18.908;2023-10-09T12:37:07;3.75;;;1.35;;
70707;SDS011;58277;47.316;18.908;2023-10-09T12:39:29;9.15;;;1.55;;
70707;SDS011;58277;47.316;18.908;2023-10-09T12:41:55;6.00;;;1.65;;
70707;SDS011;58277;47.316;18.908;2023-10-09T12:44:21;10.52;;;1.90;;
70707;SDS011;58277;47.316;18.908;2023-10-09T12:46:44;4.80;;;1.60;;
70707;SDS011;58277;47.316;18.908;2023-10-09T12:49:16;6.68;;;1.40;;
70707;SDS011;58277;47.316;18.908;2023-10-09T12:51:40;6.03;;;1.60;;
70707;SDS011;58277;47.316;18.908;2023-10-09T12:54:02;12.57;;;1.70;;
70707;SDS011;58277;47.316;18.908;2023-10-09T12:56:25;2.35;;;1.40;;
70707;SDS011;58277;47.316;18.908;2023-10-09T12:58:55;4.60;;;1.42;;
70707;SDS011;58277;47.316;18.908;2023-10-09T13:01:19;4.00;;;1.50;;
70707;SDS011;58277;47.316;18.908;2023-10-09T13:03:43;6.90;;;1.63;;
70707;SDS011;58277;47.316;18.908;2023-10-09T13:06:05;5.15;;;1.60;;
70707;SDS011;58277;47.316;18.908;2023-10-09T13:08:35;5.60;;;1.45;;
70707;SDS011;58277;47.316;18.908;2023-10-09T13:11:03;3.90;;;1.33;;
70707;SDS011;58277;47.316;18.908;2023-10-09T13:13:34;6.38;;;1.70;;
70707;SDS011;58277;47.316;18.908;2023-10-09T13:16:04;3.63;;;1.58;;
70707;SDS011;58277;47.316;18.908;2023-10-09T13:18:29;5.97;;;2.00;;
70707;SDS011;58277;47.316;18.908;2023-10-09T13:20:51;7.97;;;1.83;;
70707;SDS011;58277;47.316;18.908;2023-10-09T13:23:14;6.55;;;1.90;;
70707;SDS011;58277;47.316;18.908;2023-10-09T13:33:21;5.32;;;1.73;;
70707;SDS011;58277;47.316;18.908;2023-10-09T13:35:44;6.82;;;1.90;;
70707;SDS011;58277;47.316;18.908;2023-10-09T13:38:13;6.80;;;1.80;;
70707;SDS011;58277;47.316;18.908;2023-10-09T13:40:37;5.53;;;1.60;;
70707;SDS011;58277;47.316;18.908;2023-10-09T13:43:00;3.03;;;1.45;;
70707;SDS011;58277;47.316;18.908;2023-10-09T13:45:23;9.65;;;1.80;;
70707;SDS011;58277;47.316;18.908;2023-10-09T13:47:49;7.78;;;2.00;;
70707;SDS011;58277;47.316;18.908;2023-10-09T13:50:12;5.47;;;1.73;;
70707;SDS011;58277;47.316;18.908;2023-10-09T13:52:35;6.50;;;1.80;;
70707;SDS011;58277;47.316;18.908;2023-10-09T13:55:01;6.15;;;2.10;;
70707;SDS011;58277;47.316;18.908;2023-10-09T13:57:37;7.57;;;2.05;;
70707;SDS011;58277;47.316;18.908;2023-10-09T14:00:00;8.25;;;2.22;;
70707;SDS011;58277;47.316;18.908;2023-10-09T14:02:24;4.50;;;2.28;;
70707;SDS011;58277;47.316;18.908;2023-10-09T14:04:51;5.93;;;2.30;;
70707;SDS011;58277;47.316;18.908;2023-10-09T14:07:15;5.35;;;1.98;;
70707;SDS011;58277;47.316;18.908;2023-10-09T14:09:43;8.02;;;1.85;;
70707;SDS011;58277;47.316;18.908;2023-10-09T14:12:06;4.47;;;1.55;;
70707;SDS011;58277;47.316;18.908;2023-10-09T14:14:29;5.75;;;2.00;;
70707;SDS011;58277;47.316;18.908;2023-10-09T14:16:53;9.88;;;2.00;;
70707;SDS011;58277;47.316;18.908;2023-10-09T14:19:19;6.88;;;1.70;;
70707;SDS011;58277;47.316;18.908;2023-10-09T14:21:43;7.07;;;2.20;;
70707;SDS011;58277;47.316;18.908;2023-10-09T14:24:06;5.97;;;2.28;;
70707;SDS011;58277;47.316;18.908;2023-10-09T14:26:42;8.23;;;2.28;;
70707;SDS011;58277;47.316;18.908;2023-10-09T14:29:07;4.68;;;2.20;;
70707;SDS011;58277;47.316;18.908;2023-10-09T14:31:30;5.82;;;2.47;;
70707;SDS011;58277;47.316;18.908;2023-10-09T14:33:54;9.73;;;3.03;;
70707;SDS011;58277;47.316;18.908;2023-10-09T14:36:18;8.32;;;2.78;;
70707;SDS011;58277;47.316;18.908;2023-10-09T14:38:44;8.07;;;2.72;;
70707;SDS011;58277;47.316;18.908;2023-10-09T14:41:09;7.03;;;2.65;;
70707;SDS011;58277;47.316;18.908;2023-10-09T14:43:34;8.23;;;2.95;;
70707;SDS011;58277;47.316;18.908;2023-10-09T14:45:57;7.57;;;2.40;;
70707;SDS011;58277;47.316;18.908;2023-10-09T14:48:20;7.80;;;2.88;;
70707;SDS011;58277;47.316;18.908;2023-10-09T14:50:49;11.27;;;3.47;;
70707;SDS011;58277;47.316;18.908;2023-10-09T14:53:16;8.75;;;3.05;;
70707;SDS011;58277;47.316;18.908;2023-10-09T14:55:39;6.38;;;2.70;;
70707;SDS011;58277;47.316;18.908;2023-10-09T14:58:04;10.27;;;3.22;;
70707;SDS011;58277;47.316;18.908;2023-10-09T15:00:27;10.55;;;3.47;;
70707;SDS011;58277;47.316;18.908;2023-10-09T15:02:50;8.70;;;3.60;;
70707;SDS011;58277;47.316;18.908;2023-10-09T15:05:15;8.73;;;3.70;;
70707;SDS011;58277;47.316;18.908;2023-10-09T15:07:38;12.35;;;3.80;;
70707;SDS011;58277;47.316;18.908;2023-10-09T15:10:06;9.38;;;3.30;;
70707;SDS011;58277;47.316;18.908;2023-10-09T15:12:31;9.90;;;3.20;;
70707;SDS011;58277;47.316;18.908;2023-10-09T15:14:54;8.77;;;3.50;;